sensor_id;sensor_type;location;lat;lon;timestamp;P1;durP1;ratioP1;P2;durP2;ratioP2
32082;SDS011;18597;48.328;7.932;2022-08-19T00:01:19;33.47;;;28.67;;
32082;SDS011;18597;48.328;7.932;2022-08-19T00:03:45;39.57;;;29.83;;
32082;SDS011;18597;48.328;7.932;2022-08-19T00:06:11;42.80;;;31.03;;
32082;SDS011;18597;48.328;7.932;2022-08-19T00:08:37;36.00;;;30.80;;
32082;SDS011;18597;48.328;7.932;2022-08-19T00:11:04;38.40;;;28.80;;
32082;SDS011;18597;48.328;7.932;2022-08-19T00:13:30;36.00;;;28.83;;
32082;SDS011;18597;48.328;7.932;2022-08-19T00:15:56;41.40;;;28.87;;
32082;SDS011;18597;48.328;7.932;2022-08-19T00:18:23;37.23;;;29.67;;
32082;SDS011;18597;48.328;7.932;2022-08-19T00:20:50;41.57;;;29.60;;
32082;SDS011;18597;48.328;7.932;2022-08-19T00:23:16;42.13;;;31.27;;
32082;SDS011;18597;48.328;7.932;2022-08-19T00:25:42;42.90;;;31.10;;
32082;SDS011;18597;48.328;7.932;2022-08-19T00:28:08;40.43;;;29.97;;
32082;SDS011;18597;48.328;7.932;2022-08-19T00:30:34;40.40;;;29.47;;
32082;SDS011;18597;48.328;7.932;2022-08-19T00:33:00;40.60;;;31.97;;
32082;SDS011;18597;48.328;7.932;2022-08-19T00:35:26;47.27;;;32.07;;
32082;SDS011;18597;48.328;7.932;2022-08-19T00:37:52;38.23;;;30.90;;
32082;SDS011;18597;48.328;7.932;2022-08-19T00:40:20;44.40;;;32.80;;
32082;SDS011;18597;48.328;7.932;2022-08-19T00:42:46;36.53;;;29.90;;
32082;SDS011;18597;48.328;7.932;2022-08-19T00:45:15;37.43;;;29.53;;
32082;SDS011;18597;48.328;7.932;2022-08-19T00:47:45;43.97;;;28.50;;
32082;SDS011;18597;48.328;7.932;2022-08-19T00:50:12;41.40;;;29.83;;
32082;SDS011;18597;48.328;7.932;2022-08-19T00:52:42;38.97;;;28.97;;
32082;SDS011;18597;48.328;7.932;2022-08-19T00:55:14;36.37;;;26.27;;
32082;SDS011;18597;48.328;7.932;2022-08-19T00:57:48;41.60;;;30.67;;
32082;SDS011;18597;48.328;7.932;2022-08-19T01:00:20;38.73;;;29.47;;
32082;SDS011;18597;48.328;7.932;2022-08-19T01:02:49;36.03;;;30.27;;
32082;SDS011;18597;48.328;7.932;2022-08-19T01:05:17;44.43;;;31.50;;
32082;SDS011;18597;48.328;7.932;2022-08-19T01:07:49;39.80;;;28.17;;
32082;SDS011;18597;48.328;7.932;2022-08-19T01:10:19;48.53;;;30.10;;
32082;SDS011;18597;48.328;7.932;2022-08-19T01:12:49;44.63;;;30.70;;
32082;SDS011;18597;48.328;7.932;2022-08-19T01:15:17;36.87;;;29.20;;
32082;SDS011;18597;48.328;7.932;2022-08-19T01:17:49;57.23;;;31.60;;
32082;SDS011;18597;48.328;7.932;2022-08-19T01:20:19;39.80;;;29.90;;
32082;SDS011;18597;48.328;7.932;2022-08-19T01:22:49;43.20;;;32.10;;
32082;SDS011;18597;48.328;7.932;2022-08-19T01:25:20;50.33;;;32.43;;
32082;SDS011;18597;48.328;7.932;2022-08-19T01:27:53;41.73;;;30.67;;
32082;SDS011;18597;48.328;7.932;2022-08-19T01:30:21;45.13;;;32.87;;
32082;SDS011;18597;48.328;7.932;2022-08-19T01:32:52;47.10;;;32.67;;
32082;SDS011;18597;48.328;7.932;2022-08-19T01:35:18;47.20;;;33.60;;
32082;SDS011;18597;48.328;7.932;2022-08-19T01:37:47;45.80;;;32.47;;
32082;SDS011;18597;48.328;7.932;2022-08-19T01:40:18;46.10;;;31.60;;
32082;SDS011;18597;48.328;7.932;2022-08-19T01:42:48;40.60;;;30.10;;
32082;SDS011;18597;48.328;7.932;2022-08-19T01:45:15;46.43;;;31.80;;
32082;SDS011;18597;48.328;7.932;2022-08-19T01:47:43;51.07;;;32.90;;
32082;SDS011;18597;48.328;7.932;2022-08-19T01:50:09;47.20;;;32.87;;
32082;SDS011;18597;48.328;7.932;2022-08-19T01:52:37;49.40;;;32.87;;
32082;SDS011;18597;48.328;7.932;2022-08-19T01:55:07;50.93;;;33.07;;
32082;SDS011;18597;48.328;7.932;2022-08-19T01:57:46;48.63;;;32.47;;
32082;SDS011;18597;48.328;7.932;2022-08-19T02:00:17;46.20;;;33.60;;
32082;SDS011;18597;48.328;7.932;2022-08-19T02:02:47;42.13;;;31.23;;
32082;SDS011;18597;48.328;7.932;2022-08-19T02:05:13;46.37;;;31.90;;
32082;SDS011;18597;48.328;7.932;2022-08-19T02:07:39;44.07;;;32.60;;
32082;SDS011;18597;48.328;7.932;2022-08-19T02:10:07;44.80;;;31.70;;
32082;SDS011;18597;48.328;7.932;2022-08-19T02:12:38;43.73;;;30.33;;
32082;SDS011;18597;48.328;7.932;2022-08-19T02:15:04;48.23;;;31.20;;
32082;SDS011;18597;48.328;7.932;2022-08-19T02:17:31;47.57;;;32.57;;
32082;SDS011;18597;48.328;7.932;2022-08-19T02:19:57;50.67;;;31.90;;
32082;SDS011;18597;48.328;7.932;2022-08-19T02:22:24;51.97;;;33.93;;
32082;SDS011;18597;48.328;7.932;2022-08-19T02:24:51;49.37;;;30.77;;
32082;SDS011;18597;48.328;7.932;2022-08-19T02:27:18;51.50;;;34.10;;
32082;SDS011;18597;48.328;7.932;2022-08-19T02:29:45;51.67;;;31.57;;
32082;SDS011;18597;48.328;7.932;2022-08-19T02:32:12;50.43;;;33.80;;
32082;SDS011;18597;48.328;7.932;2022-08-19T02:34:38;55.40;;;33.67;;
32082;SDS011;18597;48.328;7.932;2022-08-19T02:37:05;58.00;;;32.53;;
32082;SDS011;18597;48.328;7.932;2022-08-19T02:39:51;53.03;;;34.53;;
32082;SDS011;18597;48.328;7.932;2022-08-19T02:42:17;59.83;;;34.90;;
32082;SDS011;18597;48.328;7.932;2022-08-19T02:44:43;53.70;;;34.83;;
32082;SDS011;18597;48.328;7.932;2022-08-19T02:47:09;49.00;;;31.77;;
32082;SDS011;18597;48.328;7.932;2022-08-19T02:49:35;46.30;;;30.27;;
32082;SDS011;18597;48.328;7.932;2022-08-19T02:52:02;44.00;;;31.33;;
32082;SDS011;18597;48.328;7.932;2022-08-19T02:54:28;48.43;;;31.90;;
32082;SDS011;18597;48.328;7.932;2022-08-19T02:56:54;40.50;;;29.53;;
32082;SDS011;18597;48.328;7.932;2022-08-19T02:59:20;44.50;;;30.20;;
32082;SDS011;18597;48.328;7.932;2022-08-19T03:01:46;47.90;;;29.70;;
32082;SDS011;18597;48.328;7.932;2022-08-19T03:04:12;49.53;;;31.33;;
32082;SDS011;18597;48.328;7.932;2022-08-19T03:06:42;46.67;;;31.10;;
32082;SDS011;18597;48.328;7.932;2022-08-19T03:09:11;49.83;;;30.50;;
32082;SDS011;18597;48.328;7.932;2022-08-19T03:11:38;39.77;;;27.57;;
32082;SDS011;18597;48.328;7.932;2022-08-19T03:14:05;41.83;;;29.03;;
32082;SDS011;18597;48.328;7.932;2022-08-19T03:16:35;36.13;;;26.57;;
32082;SDS011;18597;48.328;7.932;2022-08-19T03:19:11;42.40;;;27.13;;
32082;SDS011;18597;48.328;7.932;2022-08-19T03:21:38;45.10;;;28.37;;
32082;SDS011;18597;48.328;7.932;2022-08-19T03:24:05;37.67;;;28.67;;
32082;SDS011;18597;48.328;7.932;2022-08-19T03:26:33;38.43;;;27.20;;
32082;SDS011;18597;48.328;7.932;2022-08-19T03:29:03;34.87;;;26.37;;
32082;SDS011;18597;48.328;7.932;2022-08-19T03:31:30;35.07;;;25.87;;
32082;SDS011;18597;48.328;7.932;2022-08-19T03:33:57;36.43;;;26.07;;
32082;SDS011;18597;48.328;7.932;2022-08-19T03:36:24;36.90;;;25.00;;
32082;SDS011;18597;48.328;7.932;2022-08-19T03:38:53;33.57;;;25.73;;
32082;SDS011;18597;48.328;7.932;2022-08-19T03:41:22;39.10;;;27.00;;
32082;SDS011;18597;48.328;7.932;2022-08-19T03:43:52;41.73;;;26.93;;
32082;SDS011;18597;48.328;7.932;2022-08-19T03:46:22;39.50;;;27.63;;
32082;SDS011;18597;48.328;7.932;2022-08-19T03:48:53;31.67;;;24.90;;
32082;SDS011;18597;48.328;7.932;2022-08-19T03:51:23;29.73;;;24.83;;
32082;SDS011;18597;48.328;7.932;2022-08-19T03:53:54;33.10;;;26.37;;
32082;SDS011;18597;48.328;7.932;2022-08-19T03:56:21;40.13;;;27.73;;
32082;SDS011;18597;48.328;7.932;2022-08-19T03:58:47;37.87;;;26.73;;
32082;SDS011;18597;48.328;7.932;2022-08-19T04:01:15;40.22;;;29.85;;
32082;SDS011;18597;48.328;7.932;2022-08-19T04:03:44;34.67;;;24.50;;
32082;SDS011;18597;48.328;7.932;2022-08-19T04:06:12;42.17;;;23.70;;
32082;SDS011;18597;48.328;7.932;2022-08-19T04:08:49;28.57;;;23.47;;
32082;SDS011;18597;48.328;7.932;2022-08-19T04:11:19;39.80;;;27.93;;
32082;SDS011;18597;48.328;7.932;2022-08-19T04:13:49;35.07;;;26.20;;
32082;SDS011;18597;48.328;7.932;2022-08-19T04:16:18;35.40;;;28.40;;
32082;SDS011;18597;48.328;7.932;2022-08-19T04:18:46;35.83;;;27.33;;
32082;SDS011;18597;48.328;7.932;2022-08-19T04:21:16;29.87;;;26.63;;
32082;SDS011;18597;48.328;7.932;2022-08-19T04:23:47;37.20;;;26.23;;
32082;SDS011;18597;48.328;7.932;2022-08-19T04:26:14;32.87;;;25.80;;
32082;SDS011;18597;48.328;7.932;2022-08-19T04:28:43;33.70;;;25.93;;
32082;SDS011;18597;48.328;7.932;2022-08-19T04:31:13;31.77;;;26.77;;
32082;SDS011;18597;48.328;7.932;2022-08-19T04:33:42;33.73;;;26.37;;
32082;SDS011;18597;48.328;7.932;2022-08-19T04:36:08;31.40;;;24.80;;
32082;SDS011;18597;48.328;7.932;2022-08-19T04:38:44;30.77;;;25.30;;
32082;SDS011;18597;48.328;7.932;2022-08-19T04:41:10;30.37;;;25.50;;
32082;SDS011;18597;48.328;7.932;2022-08-19T04:43:56;27.90;;;23.60;;
32082;SDS011;18597;48.328;7.932;2022-08-19T04:46:21;28.80;;;24.77;;
32082;SDS011;18597;48.328;7.932;2022-08-19T04:48:47;38.23;;;24.43;;
32082;SDS011;18597;48.328;7.932;2022-08-19T04:51:13;30.60;;;25.53;;
32082;SDS011;18597;48.328;7.932;2022-08-19T04:53:40;36.17;;;26.63;;
32082;SDS011;18597;48.328;7.932;2022-08-19T04:56:08;32.77;;;25.87;;
32082;SDS011;18597;48.328;7.932;2022-08-19T04:58:37;35.53;;;27.20;;
32082;SDS011;18597;48.328;7.932;2022-08-19T05:01:07;33.17;;;24.70;;
32082;SDS011;18597;48.328;7.932;2022-08-19T05:03:37;29.97;;;24.83;;
32082;SDS011;18597;48.328;7.932;2022-08-19T05:06:05;45.77;;;36.50;;
32082;SDS011;18597;48.328;7.932;2022-08-19T05:08:35;42.60;;;34.30;;
32082;SDS011;18597;48.328;7.932;2022-08-19T05:11:11;40.13;;;28.10;;
32082;SDS011;18597;48.328;7.932;2022-08-19T05:13:43;52.93;;;37.60;;
32082;SDS011;18597;48.328;7.932;2022-08-19T05:16:10;37.07;;;27.30;;
32082;SDS011;18597;48.328;7.932;2022-08-19T05:18:38;38.30;;;25.40;;
32082;SDS011;18597;48.328;7.932;2022-08-19T05:21:25;41.23;;;32.77;;
32082;SDS011;18597;48.328;7.932;2022-08-19T05:24:11;39.47;;;30.07;;
32082;SDS011;18597;48.328;7.932;2022-08-19T05:26:40;31.13;;;25.90;;
32082;SDS011;18597;48.328;7.932;2022-08-19T05:29:11;30.60;;;26.60;;
32082;SDS011;18597;48.328;7.932;2022-08-19T05:31:38;30.50;;;24.30;;
32082;SDS011;18597;48.328;7.932;2022-08-19T05:34:05;33.37;;;25.57;;
32082;SDS011;18597;48.328;7.932;2022-08-19T05:36:34;33.03;;;27.60;;
32082;SDS011;18597;48.328;7.932;2022-08-19T05:39:04;33.63;;;24.90;;
32082;SDS011;18597;48.328;7.932;2022-08-19T05:41:33;32.33;;;25.37;;
32082;SDS011;18597;48.328;7.932;2022-08-19T05:44:01;33.73;;;24.93;;
32082;SDS011;18597;48.328;7.932;2022-08-19T05:46:33;29.07;;;24.93;;
32082;SDS011;18597;48.328;7.932;2022-08-19T05:49:02;31.20;;;24.97;;
32082;SDS011;18597;48.328;7.932;2022-08-19T05:51:30;29.70;;;24.33;;
32082;SDS011;18597;48.328;7.932;2022-08-19T05:53:59;25.97;;;22.93;;
32082;SDS011;18597;48.328;7.932;2022-08-19T05:56:26;25.43;;;22.73;;
32082;SDS011;18597;48.328;7.932;2022-08-19T05:58:52;29.53;;;23.20;;
32082;SDS011;18597;48.328;7.932;2022-08-19T06:01:19;23.27;;;20.97;;
32082;SDS011;18597;48.328;7.932;2022-08-19T06:03:46;26.07;;;22.47;;
32082;SDS011;18597;48.328;7.932;2022-08-19T06:06:13;25.73;;;22.97;;
32082;SDS011;18597;48.328;7.932;2022-08-19T06:08:41;25.77;;;22.93;;
32082;SDS011;18597;48.328;7.932;2022-08-19T06:11:12;23.83;;;21.23;;
32082;SDS011;18597;48.328;7.932;2022-08-19T06:13:43;30.47;;;22.20;;
32082;SDS011;18597;48.328;7.932;2022-08-19T06:16:14;26.77;;;21.00;;
32082;SDS011;18597;48.328;7.932;2022-08-19T06:18:57;23.43;;;20.40;;
32082;SDS011;18597;48.328;7.932;2022-08-19T06:21:27;28.10;;;22.03;;
32082;SDS011;18597;48.328;7.932;2022-08-19T06:23:55;25.40;;;22.70;;
32082;SDS011;18597;48.328;7.932;2022-08-19T06:26:22;30.70;;;23.73;;
32082;SDS011;18597;48.328;7.932;2022-08-19T06:28:49;24.77;;;22.33;;
32082;SDS011;18597;48.328;7.932;2022-08-19T06:31:16;28.40;;;24.00;;
32082;SDS011;18597;48.328;7.932;2022-08-19T06:33:46;24.10;;;21.67;;
32082;SDS011;18597;48.328;7.932;2022-08-19T06:36:16;23.23;;;20.73;;
32082;SDS011;18597;48.328;7.932;2022-08-19T06:38:45;22.50;;;20.20;;
32082;SDS011;18597;48.328;7.932;2022-08-19T06:41:11;23.00;;;20.10;;
32082;SDS011;18597;48.328;7.932;2022-08-19T06:43:37;21.97;;;19.03;;
32082;SDS011;18597;48.328;7.932;2022-08-19T06:46:03;19.67;;;17.87;;
32082;SDS011;18597;48.328;7.932;2022-08-19T06:48:35;20.80;;;18.80;;
32082;SDS011;18597;48.328;7.932;2022-08-19T06:51:01;20.50;;;18.30;;
32082;SDS011;18597;48.328;7.932;2022-08-19T06:53:28;22.73;;;17.60;;
32082;SDS011;18597;48.328;7.932;2022-08-19T06:55:54;24.13;;;18.33;;
32082;SDS011;18597;48.328;7.932;2022-08-19T06:58:25;21.97;;;17.13;;
32082;SDS011;18597;48.328;7.932;2022-08-19T07:00:51;22.07;;;16.67;;
32082;SDS011;18597;48.328;7.932;2022-08-19T07:03:17;19.70;;;17.73;;
32082;SDS011;18597;48.328;7.932;2022-08-19T07:05:43;19.03;;;17.10;;
32082;SDS011;18597;48.328;7.932;2022-08-19T07:08:09;19.00;;;17.00;;
32082;SDS011;18597;48.328;7.932;2022-08-19T07:10:35;18.90;;;17.10;;
32082;SDS011;18597;48.328;7.932;2022-08-19T07:13:01;19.90;;;17.90;;
32082;SDS011;18597;48.328;7.932;2022-08-19T07:15:28;21.90;;;17.97;;
32082;SDS011;18597;48.328;7.932;2022-08-19T07:17:55;17.20;;;15.53;;
32082;SDS011;18597;48.328;7.932;2022-08-19T07:20:21;16.93;;;15.30;;
32082;SDS011;18597;48.328;7.932;2022-08-19T07:22:48;20.17;;;18.30;;
32082;SDS011;18597;48.328;7.932;2022-08-19T07:25:15;19.30;;;17.23;;
32082;SDS011;18597;48.328;7.932;2022-08-19T07:27:42;20.80;;;15.37;;
32082;SDS011;18597;48.328;7.932;2022-08-19T07:30:09;19.60;;;17.50;;
32082;SDS011;18597;48.328;7.932;2022-08-19T07:32:36;19.20;;;17.00;;
32082;SDS011;18597;48.328;7.932;2022-08-19T07:35:03;19.20;;;17.30;;
32082;SDS011;18597;48.328;7.932;2022-08-19T07:37:30;19.00;;;17.20;;
32082;SDS011;18597;48.328;7.932;2022-08-19T07:39:56;18.93;;;17.33;;
32082;SDS011;18597;48.328;7.932;2022-08-19T07:42:21;18.67;;;16.97;;
32082;SDS011;18597;48.328;7.932;2022-08-19T07:44:47;18.10;;;16.50;;
32082;SDS011;18597;48.328;7.932;2022-08-19T07:47:13;18.30;;;16.50;;
32082;SDS011;18597;48.328;7.932;2022-08-19T07:49:42;19.27;;;17.07;;
32082;SDS011;18597;48.328;7.932;2022-08-19T07:52:08;18.07;;;16.27;;
32082;SDS011;18597;48.328;7.932;2022-08-19T07:54:36;19.37;;;17.43;;
32082;SDS011;18597;48.328;7.932;2022-08-19T07:57:04;19.03;;;17.33;;
32082;SDS011;18597;48.328;7.932;2022-08-19T07:59:30;18.80;;;17.10;;
32082;SDS011;18597;48.328;7.932;2022-08-19T08:01:59;19.67;;;17.67;;
32082;SDS011;18597;48.328;7.932;2022-08-19T08:04:25;18.77;;;16.87;;
32082;SDS011;18597;48.328;7.932;2022-08-19T08:07:13;16.87;;;15.10;;
32082;SDS011;18597;48.328;7.932;2022-08-19T08:09:59;18.90;;;16.97;;
32082;SDS011;18597;48.328;7.932;2022-08-19T08:12:26;20.00;;;18.10;;
32082;SDS011;18597;48.328;7.932;2022-08-19T08:14:58;20.97;;;16.90;;
32082;SDS011;18597;48.328;7.932;2022-08-19T08:17:27;19.90;;;18.10;;
32082;SDS011;18597;48.328;7.932;2022-08-19T08:19:54;18.97;;;17.13;;
32082;SDS011;18597;48.328;7.932;2022-08-19T08:22:22;23.37;;;18.77;;
32082;SDS011;18597;48.328;7.932;2022-08-19T08:25:13;21.50;;;19.30;;
32082;SDS011;18597;48.328;7.932;2022-08-19T08:27:44;25.70;;;20.53;;
32082;SDS011;18597;48.328;7.932;2022-08-19T08:30:17;20.70;;;18.80;;
32082;SDS011;18597;48.328;7.932;2022-08-19T08:32:46;21.97;;;19.63;;
32082;SDS011;18597;48.328;7.932;2022-08-19T08:35:13;22.70;;;20.60;;
32082;SDS011;18597;48.328;7.932;2022-08-19T08:37:43;21.40;;;19.23;;
32082;SDS011;18597;48.328;7.932;2022-08-19T08:40:16;23.67;;;21.13;;
32082;SDS011;18597;48.328;7.932;2022-08-19T08:43:34;22.00;;;19.37;;
32082;SDS011;18597;48.328;7.932;2022-08-19T08:46:00;26.17;;;22.73;;
32082;SDS011;18597;48.328;7.932;2022-08-19T08:48:36;22.50;;;20.33;;
32082;SDS011;18597;48.328;7.932;2022-08-19T08:51:29;22.27;;;20.27;;
32082;SDS011;18597;48.328;7.932;2022-08-19T08:54:05;20.40;;;18.60;;
32082;SDS011;18597;48.328;7.932;2022-08-19T08:56:34;24.67;;;22.40;;
32082;SDS011;18597;48.328;7.932;2022-08-19T08:59:07;24.87;;;21.13;;
32082;SDS011;18597;48.328;7.932;2022-08-19T09:01:47;22.83;;;20.43;;
32082;SDS011;18597;48.328;7.932;2022-08-19T09:04:13;23.43;;;20.17;;
32082;SDS011;18597;48.328;7.932;2022-08-19T09:06:58;23.40;;;20.83;;
32082;SDS011;18597;48.328;7.932;2022-08-19T09:09:38;23.60;;;21.00;;
32082;SDS011;18597;48.328;7.932;2022-08-19T09:14:51;24.50;;;21.80;;
32082;SDS011;18597;48.328;7.932;2022-08-19T09:17:24;21.90;;;19.80;;
32082;SDS011;18597;48.328;7.932;2022-08-19T09:19:58;24.97;;;22.57;;
32082;SDS011;18597;48.328;7.932;2022-08-19T09:22:45;23.07;;;20.67;;
32082;SDS011;18597;48.328;7.932;2022-08-19T09:25:15;23.57;;;20.93;;
32082;SDS011;18597;48.328;7.932;2022-08-19T09:27:44;22.40;;;19.90;;
32082;SDS011;18597;48.328;7.932;2022-08-19T09:30:11;24.90;;;22.20;;
32082;SDS011;18597;48.328;7.932;2022-08-19T09:32:42;25.00;;;22.00;;
32082;SDS011;18597;48.328;7.932;2022-08-19T09:35:10;24.80;;;22.20;;
32082;SDS011;18597;48.328;7.932;2022-08-19T09:37:38;25.83;;;20.97;;
32082;SDS011;18597;48.328;7.932;2022-08-19T09:40:04;23.77;;;21.37;;
32082;SDS011;18597;48.328;7.932;2022-08-19T09:42:32;20.27;;;18.27;;
32082;SDS011;18597;48.328;7.932;2022-08-19T09:44:58;22.77;;;20.63;;
32082;SDS011;18597;48.328;7.932;2022-08-19T09:47:25;21.07;;;19.03;;
32082;SDS011;18597;48.328;7.932;2022-08-19T09:49:51;26.90;;;21.17;;
32082;SDS011;18597;48.328;7.932;2022-08-19T09:52:16;22.67;;;20.27;;
32082;SDS011;18597;48.328;7.932;2022-08-19T09:54:43;21.87;;;19.67;;
32082;SDS011;18597;48.328;7.932;2022-08-19T09:57:09;22.63;;;20.50;;
32082;SDS011;18597;48.328;7.932;2022-08-19T09:59:34;21.20;;;19.27;;
32082;SDS011;18597;48.328;7.932;2022-08-19T10:02:00;28.13;;;23.70;;
32082;SDS011;18597;48.328;7.932;2022-08-19T10:04:27;22.93;;;20.63;;
32082;SDS011;18597;48.328;7.932;2022-08-19T10:07:12;23.30;;;20.93;;
32082;SDS011;18597;48.328;7.932;2022-08-19T10:09:39;22.47;;;19.90;;
32082;SDS011;18597;48.328;7.932;2022-08-19T10:12:06;23.17;;;21.07;;
32082;SDS011;18597;48.328;7.932;2022-08-19T10:14:32;21.27;;;19.17;;
32082;SDS011;18597;48.328;7.932;2022-08-19T10:16:58;22.90;;;20.00;;
32082;SDS011;18597;48.328;7.932;2022-08-19T10:19:25;25.60;;;19.90;;
32082;SDS011;18597;48.328;7.932;2022-08-19T10:21:57;20.47;;;18.53;;
32082;SDS011;18597;48.328;7.932;2022-08-19T10:24:23;22.60;;;20.17;;
32082;SDS011;18597;48.328;7.932;2022-08-19T10:26:50;19.13;;;17.33;;
32082;SDS011;18597;48.328;7.932;2022-08-19T10:29:16;18.17;;;16.63;;
32082;SDS011;18597;48.328;7.932;2022-08-19T10:31:42;19.63;;;17.90;;
32082;SDS011;18597;48.328;7.932;2022-08-19T10:34:08;22.83;;;20.33;;
32082;SDS011;18597;48.328;7.932;2022-08-19T10:36:35;23.00;;;20.40;;
32082;SDS011;18597;48.328;7.932;2022-08-19T10:39:05;20.60;;;18.43;;
32082;SDS011;18597;48.328;7.932;2022-08-19T10:41:34;21.13;;;18.80;;
32082;SDS011;18597;48.328;7.932;2022-08-19T10:44:04;22.03;;;19.83;;
32082;SDS011;18597;48.328;7.932;2022-08-19T10:46:35;19.37;;;17.67;;
32082;SDS011;18597;48.328;7.932;2022-08-19T10:49:06;21.80;;;19.70;;
32082;SDS011;18597;48.328;7.932;2022-08-19T10:51:34;26.20;;;21.77;;
32082;SDS011;18597;48.328;7.932;2022-08-19T10:54:20;20.87;;;18.77;;
32082;SDS011;18597;48.328;7.932;2022-08-19T10:56:46;20.17;;;18.03;;
32082;SDS011;18597;48.328;7.932;2022-08-19T10:59:22;20.53;;;18.47;;
32082;SDS011;18597;48.328;7.932;2022-08-19T11:01:52;23.30;;;20.90;;
32082;SDS011;18597;48.328;7.932;2022-08-19T11:04:23;21.10;;;18.90;;
32082;SDS011;18597;48.328;7.932;2022-08-19T11:06:49;18.33;;;16.73;;
32082;SDS011;18597;48.328;7.932;2022-08-19T11:09:16;22.83;;;20.70;;
32082;SDS011;18597;48.328;7.932;2022-08-19T11:11:49;25.13;;;20.47;;
32082;SDS011;18597;48.328;7.932;2022-08-19T11:14:16;29.60;;;26.87;;
32082;SDS011;18597;48.328;7.932;2022-08-19T11:16:45;25.20;;;22.57;;
32082;SDS011;18597;48.328;7.932;2022-08-19T11:19:13;23.03;;;20.93;;
32082;SDS011;18597;48.328;7.932;2022-08-19T11:21:42;22.60;;;18.33;;
32082;SDS011;18597;48.328;7.932;2022-08-19T11:24:12;23.43;;;20.83;;
32082;SDS011;18597;48.328;7.932;2022-08-19T11:26:43;20.77;;;18.90;;
32082;SDS011;18597;48.328;7.932;2022-08-19T11:29:10;20.63;;;18.37;;
32082;SDS011;18597;48.328;7.932;2022-08-19T11:31:38;19.37;;;15.90;;
32082;SDS011;18597;48.328;7.932;2022-08-19T11:34:11;20.57;;;18.57;;
32082;SDS011;18597;48.328;7.932;2022-08-19T11:36:43;22.57;;;18.20;;
32082;SDS011;18597;48.328;7.932;2022-08-19T11:39:12;20.40;;;17.10;;
32082;SDS011;18597;48.328;7.932;2022-08-19T11:41:40;17.13;;;15.43;;
32082;SDS011;18597;48.328;7.932;2022-08-19T11:44:06;16.57;;;14.97;;
32082;SDS011;18597;48.328;7.932;2022-08-19T11:46:33;20.30;;;18.47;;
32082;SDS011;18597;48.328;7.932;2022-08-19T11:49:02;19.50;;;17.63;;
32082;SDS011;18597;48.328;7.932;2022-08-19T11:51:30;26.50;;;23.97;;
32082;SDS011;18597;48.328;7.932;2022-08-19T11:53:57;17.70;;;15.67;;
32082;SDS011;18597;48.328;7.932;2022-08-19T11:56:25;14.97;;;13.73;;
32082;SDS011;18597;48.328;7.932;2022-08-19T11:58:52;30.63;;;22.40;;
32082;SDS011;18597;48.328;7.932;2022-08-19T12:01:22;19.80;;;17.93;;
32082;SDS011;18597;48.328;7.932;2022-08-19T12:03:50;16.17;;;14.83;;
32082;SDS011;18597;48.328;7.932;2022-08-19T12:06:21;16.00;;;14.50;;
32082;SDS011;18597;48.328;7.932;2022-08-19T12:08:55;18.87;;;17.13;;
32082;SDS011;18597;48.328;7.932;2022-08-19T12:11:22;23.97;;;16.40;;
32082;SDS011;18597;48.328;7.932;2022-08-19T12:13:50;15.20;;;13.83;;
32082;SDS011;18597;48.328;7.932;2022-08-19T12:16:20;16.90;;;15.50;;
32082;SDS011;18597;48.328;7.932;2022-08-19T12:18:51;19.57;;;17.17;;
32082;SDS011;18597;48.328;7.932;2022-08-19T12:21:20;19.13;;;14.17;;
32082;SDS011;18597;48.328;7.932;2022-08-19T12:23:53;27.37;;;24.70;;
32082;SDS011;18597;48.328;7.932;2022-08-19T12:26:20;18.10;;;16.40;;
32082;SDS011;18597;48.328;7.932;2022-08-19T12:28:46;18.20;;;16.33;;
32082;SDS011;18597;48.328;7.932;2022-08-19T12:31:13;28.63;;;25.73;;
32082;SDS011;18597;48.328;7.932;2022-08-19T12:33:40;20.13;;;16.20;;
32082;SDS011;18597;48.328;7.932;2022-08-19T12:36:08;23.33;;;17.67;;
32082;SDS011;18597;48.328;7.932;2022-08-19T12:38:37;19.03;;;17.43;;
32082;SDS011;18597;48.328;7.932;2022-08-19T12:41:05;21.23;;;19.43;;
32082;SDS011;18597;48.328;7.932;2022-08-19T12:43:33;20.13;;;18.33;;
32082;SDS011;18597;48.328;7.932;2022-08-19T12:45:59;17.30;;;15.87;;
32082;SDS011;18597;48.328;7.932;2022-08-19T12:48:26;17.27;;;15.67;;
32082;SDS011;18597;48.328;7.932;2022-08-19T12:50:52;16.63;;;15.33;;
32082;SDS011;18597;48.328;7.932;2022-08-19T12:53:19;19.73;;;16.30;;
32082;SDS011;18597;48.328;7.932;2022-08-19T12:55:45;16.33;;;14.67;;
32082;SDS011;18597;48.328;7.932;2022-08-19T12:58:11;27.73;;;16.50;;
32082;SDS011;18597;48.328;7.932;2022-08-19T13:00:37;17.53;;;15.67;;
32082;SDS011;18597;48.328;7.932;2022-08-19T13:03:03;14.30;;;13.00;;
32082;SDS011;18597;48.328;7.932;2022-08-19T13:05:30;13.10;;;12.00;;
32082;SDS011;18597;48.328;7.932;2022-08-19T13:07:59;17.33;;;14.97;;
32082;SDS011;18597;48.328;7.932;2022-08-19T13:10:28;14.53;;;13.43;;
32082;SDS011;18597;48.328;7.932;2022-08-19T13:12:59;13.40;;;12.40;;
32082;SDS011;18597;48.328;7.932;2022-08-19T13:15:32;14.93;;;13.40;;
32082;SDS011;18597;48.328;7.932;2022-08-19T13:18:00;14.03;;;12.57;;
32082;SDS011;18597;48.328;7.932;2022-08-19T13:20:26;14.83;;;13.40;;
32082;SDS011;18597;48.328;7.932;2022-08-19T13:22:53;12.50;;;11.40;;
32082;SDS011;18597;48.328;7.932;2022-08-19T13:25:20;13.20;;;12.10;;
32082;SDS011;18597;48.328;7.932;2022-08-19T13:27:46;12.03;;;11.10;;
32082;SDS011;18597;48.328;7.932;2022-08-19T13:30:14;14.97;;;13.40;;
32082;SDS011;18597;48.328;7.932;2022-08-19T13:33:01;13.83;;;12.57;;
32082;SDS011;18597;48.328;7.932;2022-08-19T13:35:36;12.53;;;11.70;;
32082;SDS011;18597;48.328;7.932;2022-08-19T13:38:05;13.37;;;12.17;;
32082;SDS011;18597;48.328;7.932;2022-08-19T13:40:32;15.00;;;13.73;;
32082;SDS011;18597;48.328;7.932;2022-08-19T13:42:59;13.07;;;12.07;;
32082;SDS011;18597;48.328;7.932;2022-08-19T13:45:27;14.60;;;13.37;;
32082;SDS011;18597;48.328;7.932;2022-08-19T13:47:55;14.07;;;12.80;;
32082;SDS011;18597;48.328;7.932;2022-08-19T13:50:23;15.73;;;13.30;;
32082;SDS011;18597;48.328;7.932;2022-08-19T13:52:53;11.83;;;10.90;;
32082;SDS011;18597;48.328;7.932;2022-08-19T13:55:21;13.00;;;11.87;;
32082;SDS011;18597;48.328;7.932;2022-08-19T13:57:51;12.20;;;11.00;;
32082;SDS011;18597;48.328;7.932;2022-08-19T14:00:21;11.60;;;10.47;;
32082;SDS011;18597;48.328;7.932;2022-08-19T14:02:51;11.03;;;10.17;;
32082;SDS011;18597;48.328;7.932;2022-08-19T14:05:20;12.20;;;10.63;;
32082;SDS011;18597;48.328;7.932;2022-08-19T14:07:47;11.13;;;10.30;;
32082;SDS011;18597;48.328;7.932;2022-08-19T14:10:13;10.47;;;9.80;;
32082;SDS011;18597;48.328;7.932;2022-08-19T14:12:40;10.33;;;9.53;;
32082;SDS011;18597;48.328;7.932;2022-08-19T14:15:07;9.90;;;9.00;;
32082;SDS011;18597;48.328;7.932;2022-08-19T14:17:37;9.43;;;8.50;;
32082;SDS011;18597;48.328;7.932;2022-08-19T14:20:06;9.60;;;8.93;;
32082;SDS011;18597;48.328;7.932;2022-08-19T14:22:35;12.70;;;9.67;;
32082;SDS011;18597;48.328;7.932;2022-08-19T14:25:05;10.40;;;9.50;;
32082;SDS011;18597;48.328;7.932;2022-08-19T14:27:35;9.53;;;8.80;;
32082;SDS011;18597;48.328;7.932;2022-08-19T14:30:03;10.43;;;9.40;;
32082;SDS011;18597;48.328;7.932;2022-08-19T14:32:31;10.30;;;9.60;;
32082;SDS011;18597;48.328;7.932;2022-08-19T14:34:59;10.60;;;9.40;;